createdAt,value
2023-03-26T00:03:35.888Z,48.55
2023-03-26T00:13:42.313Z,48.51
2023-03-26T00:23:48.570Z,48.49
2023-03-26T00:33:56.018Z,48.44
2023-03-26T00:44:03.548Z,48.38
2023-03-26T00:54:11.008Z,48.30
2023-03-26T01:04:18.554Z,48.31
2023-03-26T01:14:25.796Z,48.29
2023-03-26T01:24:32.756Z,48.28
2023-03-26T01:34:40.255Z,48.24
2023-03-26T01:44:47.604Z,48.19
2023-03-26T01:54:54.889Z,48.16
2023-03-26T02:05:02.002Z,48.01
2023-03-26T02:15:09.223Z,48.01
2023-03-26T02:25:16.221Z,48.06
2023-03-26T02:35:23.472Z,48.08
2023-03-26T02:45:31.235Z,48.09
2023-03-26T02:55:38.423Z,48.05
2023-03-26T03:05:45.350Z,48.05
2023-03-26T03:15:52.374Z,47.91
2023-03-26T03:26:00.475Z,47.90
2023-03-26T03:36:07.380Z,47.92
2023-03-26T03:46:14.170Z,47.95
2023-03-26T03:56:21.406Z,47.95
2023-03-26T04:06:28.154Z,47.97
2023-03-26T04:16:34.741Z,47.94
2023-03-26T04:26:41.333Z,47.85
2023-03-26T04:36:47.607Z,47.88
2023-03-26T04:46:54.600Z,47.84
2023-03-26T04:57:02.058Z,47.84
2023-03-26T05:07:09.865Z,47.85
2023-03-26T05:17:16.761Z,47.85
2023-03-26T05:27:23.825Z,47.82
2023-03-26T05:37:31.079Z,47.92
2023-03-26T05:47:38.564Z,48.10
2023-03-26T05:57:46.295Z,48.25
2023-03-26T06:07:53.199Z,48.72
2023-03-26T06:17:59.972Z,49.40
2023-03-26T06:28:07.342Z,49.55
2023-03-26T06:38:14.071Z,49.59
2023-03-26T06:48:21.152Z,49.44
2023-03-26T06:58:28.317Z,49.28
2023-03-26T07:08:35.143Z,49.20
2023-03-26T07:18:42.304Z,49.12
2023-03-26T07:29:05.011Z,49.15
2023-03-26T07:39:01.692Z,49.28
2023-03-26T07:49:08.760Z,49.29
2023-03-26T07:59:15.378Z,48.59
2023-03-26T08:09:22.540Z,49.11
2023-03-26T08:19:30.028Z,48.57
2023-03-26T08:29:36.597Z,48.34
2023-03-26T08:39:43.813Z,48.43
2023-03-26T08:49:50.859Z,48.36
2023-03-26T08:59:57.901Z,48.45
2023-03-26T09:10:05.382Z,48.15
2023-03-26T09:20:12.147Z,47.61
2023-03-26T09:30:19.592Z,47.56
2023-03-26T09:40:26.054Z,47.81
2023-03-26T09:50:32.932Z,47.13
2023-03-26T10:00:39.975Z,47.17
2023-03-26T10:10:46.866Z,47.24
2023-03-26T10:20:54.268Z,47.70
2023-03-26T10:31:01.926Z,48.17
2023-03-26T10:41:08.543Z,48.68
2023-03-26T10:51:15.770Z,49.19
2023-03-26T11:01:23.250Z,49.49
2023-03-26T11:11:30.968Z,49.55
2023-03-26T11:21:38.184Z,49.58
2023-03-26T11:31:45.159Z,49.59
2023-03-26T11:41:52.484Z,49.63
2023-03-26T11:51:59.440Z,49.62
2023-03-26T12:02:06.583Z,49.62
2023-03-26T12:12:13.850Z,49.56
2023-03-26T12:22:20.676Z,49.53
2023-03-26T12:32:42.885Z,49.49
2023-03-26T12:44:55.724Z,49.44
2023-03-26T12:52:51.860Z,49.42
2023-03-26T13:02:59.120Z,49.42
2023-03-26T13:13:06.777Z,49.36
2023-03-26T13:23:14.016Z,49.35
2023-03-26T13:33:21.370Z,49.26
2023-03-26T13:43:28.139Z,49.21
2023-03-26T13:53:35.140Z,49.14
2023-03-26T14:03:41.962Z,49.11
2023-03-26T14:13:49.393Z,49.08
2023-03-26T14:23:56.067Z,49.03
2023-03-26T14:34:03.090Z,48.95
2023-03-26T14:44:10.499Z,48.85
2023-03-26T14:54:17.261Z,48.82
2023-03-26T15:04:24.441Z,48.76
2023-03-26T15:14:31.480Z,48.74
2023-03-26T15:24:38.451Z,48.70
2023-03-26T15:34:45.622Z,48.67
2023-03-26T15:44:53.939Z,48.63
2023-03-26T15:55:02.014Z,48.59
2023-03-26T16:05:09.757Z,48.51
2023-03-26T16:15:16.707Z,48.47
2023-03-26T16:25:26.869Z,48.48
2023-03-26T16:35:36.055Z,48.42
2023-03-26T16:45:42.817Z,48.42
2023-03-26T16:55:49.708Z,48.39
2023-03-26T17:05:57.185Z,48.33
2023-03-26T17:16:05.333Z,48.25
2023-03-26T17:26:12.773Z,48.26
2023-03-26T17:36:20.353Z,48.22
2023-03-26T17:46:28.157Z,48.14
2023-03-26T17:56:35.219Z,48.07
2023-03-26T18:06:42.647Z,48.27
2023-03-26T18:16:50.077Z,48.34
2023-03-26T18:26:57.136Z,48.20
2023-03-26T18:37:04.330Z,48.18
2023-03-26T18:47:11.106Z,48.15
2023-03-26T18:57:18.590Z,48.16
2023-03-26T19:07:25.535Z,48.08
2023-03-26T19:17:32.995Z,48.01
2023-03-26T19:27:39.482Z,47.99
2023-03-26T19:37:47.865Z,47.95
2023-03-26T19:48:03.968Z,47.94
2023-03-26T19:58:06.760Z,47.96
2023-03-26T20:08:13.449Z,47.88
2023-03-26T20:18:20.768Z,47.72
2023-03-26T20:28:27.826Z,47.58
2023-03-26T20:38:39.369Z,47.46
2023-03-26T20:48:47.196Z,47.33
2023-03-26T20:59:03.488Z,47.36
2023-03-26T21:09:06.121Z,47.30
2023-03-26T21:19:12.981Z,47.23
2023-03-26T21:29:19.862Z,47.08
2023-03-26T21:39:26.789Z,47.02
2023-03-26T21:49:34.260Z,46.87
2023-03-26T21:59:41.263Z,46.79
2023-03-26T22:09:48.392Z,46.58
2023-03-26T22:19:55.324Z,46.47
2023-03-26T22:30:02.744Z,46.36
2023-03-26T22:40:09.464Z,46.33
2023-03-26T22:50:16.447Z,46.27
2023-03-26T23:00:23.381Z,46.16
2023-03-26T23:10:30.716Z,46.11
2023-03-26T23:20:37.666Z,45.90
2023-03-26T23:30:44.825Z,45.76
2023-03-26T23:40:57.255Z,45.67
2023-03-26T23:51:04.537Z,45.56
